createdAt,value
2019-05-23T00:01:34.245Z,85.79
2019-05-23T00:04:04.906Z,85.97
2019-05-23T00:06:32.806Z,86.22
2019-05-23T00:09:00.112Z,86.20
2019-05-23T00:11:39.833Z,86.14
2019-05-23T00:14:19.618Z,86.18
2019-05-23T00:16:47.360Z,86.31
2019-05-23T00:19:13.563Z,86.27
2019-05-23T00:21:41.905Z,86.25
2019-05-23T00:24:07.830Z,86.09
2019-05-23T00:26:35.648Z,86.20
2019-05-23T00:29:10.034Z,86.21
2019-05-23T00:31:36.321Z,86.24
2019-05-23T00:34:03.439Z,86.60
2019-05-23T00:36:31.352Z,86.43
2019-05-23T00:38:57.996Z,86.30
2019-05-23T00:41:24.710Z,86.57
2019-05-23T00:43:51.112Z,86.72
2019-05-23T00:46:18.525Z,86.68
2019-05-23T00:48:45.361Z,86.52
2019-05-23T00:51:11.444Z,86.37
2019-05-23T00:53:38.069Z,86.30
2019-05-23T00:56:04.157Z,86.20
2019-05-23T01:00:59.994Z,86.29
2019-05-23T01:03:28.381Z,86.30
2019-05-23T01:05:54.748Z,86.16
2019-05-23T01:08:20.983Z,86.11
2019-05-23T01:10:48.173Z,86.05
2019-05-23T01:13:15.672Z,86.06
2019-05-23T01:15:42.786Z,86.02
2019-05-23T01:18:10.132Z,86.08
2019-05-23T01:20:43.940Z,85.93
2019-05-23T01:23:10.340Z,85.94
2019-05-23T01:25:37.459Z,85.87
2019-05-23T01:28:05.767Z,85.96
2019-05-23T01:30:37.286Z,86.05
2019-05-23T01:33:03.847Z,86.10
2019-05-23T01:35:30.668Z,86.17
2019-05-23T01:37:57.531Z,86.06
2019-05-23T01:40:24.182Z,86.09
2019-05-23T01:42:50.901Z,86.26
2019-05-23T01:45:18.732Z,86.21
2019-05-23T01:47:47.031Z,86.14
2019-05-23T01:50:15.151Z,86.30
2019-05-23T01:52:41.359Z,86.28
2019-05-23T01:55:09.764Z,86.32
2019-05-23T01:57:35.777Z,86.59
2019-05-23T02:00:10.517Z,86.58
2019-05-23T02:02:35.490Z,86.58
2019-05-23T02:05:03.995Z,86.56
2019-05-23T02:07:30.210Z,86.56
2019-05-23T02:09:56.403Z,86.55
2019-05-23T02:12:22.803Z,86.84
2019-05-23T02:14:48.917Z,86.83
2019-05-23T02:17:15.423Z,86.92
2019-05-23T02:19:42.936Z,87.03
2019-05-23T02:22:10.420Z,86.88
2019-05-23T02:24:37.503Z,87.13
2019-05-23T02:27:04.539Z,87.06
2019-05-23T02:29:30.552Z,87.07
2019-05-23T02:31:58.341Z,87.36
2019-05-23T02:34:24.978Z,87.36
2019-05-23T02:36:51.676Z,87.22
2019-05-23T02:39:36.404Z,87.25
2019-05-23T02:42:21.327Z,87.16
2019-05-23T02:44:47.638Z,87.32
2019-05-23T02:47:15.947Z,87.39
2019-05-23T02:49:42.103Z,87.22
2019-05-23T02:52:18.950Z,87.08
2019-05-23T02:54:47.082Z,87.22
2019-05-23T02:57:15.084Z,87.44
2019-05-23T02:59:45.142Z,87.87
2019-05-23T03:02:39.278Z,87.80
2019-05-23T03:05:09.300Z,87.67
2019-05-23T03:07:35.335Z,87.59
2019-05-23T03:10:04.887Z,87.62
2019-05-23T03:12:30.782Z,87.54
2019-05-23T03:14:58.369Z,87.54
2019-05-23T03:17:28.380Z,87.62
2019-05-23T03:19:56.213Z,87.80
2019-05-23T03:22:31.228Z,87.85
2019-05-23T03:25:00.215Z,87.70
2019-05-23T03:27:26.741Z,87.80
2019-05-23T03:29:53.048Z,87.85
2019-05-23T03:32:39.869Z,87.73
2019-05-23T03:35:17.442Z,87.71
2019-05-23T03:37:43.529Z,87.69
2019-05-23T03:40:12.176Z,87.80
2019-05-23T03:42:40.014Z,87.83
2019-05-23T03:45:08.730Z,88.01
2019-05-23T03:47:36.158Z,88.06
2019-05-23T03:50:06.160Z,88.14
2019-05-23T03:52:33.096Z,88.41
2019-05-23T03:55:01.003Z,88.60
2019-05-23T03:57:28.306Z,88.50
2019-05-23T03:59:56.143Z,88.33
2019-05-23T04:02:23.242Z,88.33
2019-05-23T04:04:50.378Z,88.11
2019-05-23T04:07:16.882Z,88.25
2019-05-23T04:09:43.010Z,88.04
2019-05-23T04:12:09.604Z,88.34
2019-05-23T04:14:36.013Z,88.40
2019-05-23T04:17:02.224Z,88.40
2019-05-23T04:19:28.129Z,88.50
2019-05-23T04:24:17.789Z,88.45
2019-05-23T04:26:44.392Z,88.36
2019-05-23T04:29:10.795Z,88.25
2019-05-23T04:31:36.909Z,88.07
2019-05-23T04:34:03.572Z,87.92
2019-05-23T04:36:30.426Z,87.73
2019-05-23T04:38:56.933Z,87.60
2019-05-23T04:41:23.637Z,87.58
2019-05-23T04:43:49.677Z,87.69
2019-05-23T04:46:15.915Z,87.75
2019-05-23T04:48:42.228Z,88.26
2019-05-23T04:51:08.644Z,88.46
2019-05-23T04:53:35.454Z,88.29
2019-05-23T04:56:02.471Z,88.14
2019-05-23T04:58:28.667Z,88.45
2019-05-23T05:00:54.979Z,88.47
2019-05-23T05:03:21.601Z,88.68
2019-05-23T05:05:48.208Z,88.66
2019-05-23T05:08:14.746Z,88.40
2019-05-23T05:10:42.365Z,88.43
2019-05-23T05:13:08.763Z,88.71
2019-05-23T05:15:35.378Z,88.89
2019-05-23T05:18:02.547Z,88.59
2019-05-23T05:20:28.652Z,88.36
2019-05-23T05:22:54.931Z,88.18
2019-05-23T05:25:20.929Z,88.07
2019-05-23T05:27:47.027Z,88.38
2019-05-23T05:30:14.887Z,88.66
2019-05-23T05:32:45.348Z,88.61
2019-05-23T05:35:09.048Z,88.94
2019-05-23T05:37:35.748Z,88.64
2019-05-23T05:40:03.989Z,88.75
2019-05-23T05:42:30.527Z,88.64
2019-05-23T05:44:56.550Z,88.54
2019-05-23T05:47:23.061Z,88.81
2019-05-23T05:49:49.596Z,88.69
2019-05-23T05:52:15.729Z,89.14
2019-05-23T05:54:41.923Z,89.58
2019-05-23T05:57:08.161Z,89.36
2019-05-23T05:59:34.562Z,88.97
2019-05-23T06:02:01.008Z,88.66
2019-05-23T06:04:27.540Z,88.54
2019-05-23T06:06:55.647Z,88.42
2019-05-23T06:09:26.172Z,88.58
2019-05-23T06:11:52.773Z,88.69
2019-05-23T06:14:19.087Z,88.82
2019-05-23T06:16:45.643Z,89.07
2019-05-23T06:19:12.703Z,88.95
2019-05-23T06:21:40.608Z,89.14
2019-05-23T06:24:07.006Z,89.24
2019-05-23T06:26:33.517Z,89.50
2019-05-23T06:28:59.830Z,89.45
2019-05-23T06:31:26.239Z,89.65
2019-05-23T06:33:52.948Z,89.26
2019-05-23T06:36:19.058Z,89.50
2019-05-23T06:38:45.916Z,90.07
2019-05-23T06:41:12.970Z,90.25
2019-05-23T06:43:39.187Z,90.08
2019-05-23T06:46:05.917Z,89.97
2019-05-23T06:48:33.030Z,90.02
2019-05-23T06:50:59.167Z,89.69
2019-05-23T06:53:25.267Z,89.67
2019-05-23T06:55:51.416Z,89.65
2019-05-23T06:58:17.836Z,89.27
2019-05-23T07:00:44.453Z,88.84
2019-05-23T07:03:11.180Z,88.54
2019-05-23T07:05:37.604Z,88.46
2019-05-23T07:08:04.218Z,88.30
2019-05-23T07:10:30.208Z,88.14
2019-05-23T07:12:56.303Z,87.98
2019-05-23T07:15:23.429Z,88.29
2019-05-23T07:17:50.175Z,88.17
2019-05-23T07:20:16.703Z,88.07
2019-05-23T07:22:43.126Z,87.65
2019-05-23T07:25:09.679Z,87.45
2019-05-23T07:27:35.803Z,87.52
2019-05-23T07:30:05.312Z,87.53
2019-05-23T07:32:31.367Z,87.46
2019-05-23T07:34:57.395Z,87.40
2019-05-23T07:37:23.567Z,87.30
2019-05-23T07:39:50.077Z,87.06
2019-05-23T07:42:16.390Z,86.87
2019-05-23T07:44:48.296Z,86.99
2019-05-23T07:47:12.630Z,86.79
2019-05-23T07:49:38.647Z,86.91
2019-05-23T07:52:04.754Z,87.13
2019-05-23T07:54:32.698Z,87.25
2019-05-23T07:56:59.439Z,86.94
2019-05-23T07:59:26.508Z,86.57
2019-05-23T08:01:57.227Z,86.49
2019-05-23T08:04:23.470Z,86.34
2019-05-23T08:06:49.610Z,86.47
2019-05-23T08:09:17.328Z,86.78
2019-05-23T08:11:43.349Z,86.79
2019-05-23T08:14:11.981Z,86.59
2019-05-23T08:16:37.621Z,86.51
2019-05-23T08:19:04.556Z,86.28
2019-05-23T08:21:30.554Z,86.32
2019-05-23T08:23:56.860Z,86.26
2019-05-23T08:26:24.988Z,86.07
2019-05-23T08:29:12.706Z,85.92
2019-05-23T08:31:19.375Z,85.66
2019-05-23T08:33:45.524Z,85.66
2019-05-23T08:36:12.526Z,85.40
2019-05-23T08:38:39.148Z,85.43
2019-05-23T08:41:05.359Z,85.33
2019-05-23T08:43:31.478Z,85.06
2019-05-23T08:45:57.794Z,84.36
2019-05-23T08:48:24.216Z,83.98
2019-05-23T08:50:51.507Z,84.21
2019-05-23T08:53:18.039Z,84.29
2019-05-23T08:55:44.145Z,84.36
2019-05-23T08:58:11.359Z,84.45
2019-05-23T09:00:40.888Z,84.14
2019-05-23T09:03:07.022Z,84.21
2019-05-23T09:05:34.307Z,84.12
2019-05-23T09:08:01.343Z,84.04
2019-05-23T09:10:29.151Z,83.92
2019-05-23T09:12:55.900Z,84.27
2019-05-23T09:15:22.592Z,84.60
2019-05-23T09:17:53.479Z,84.70
2019-05-23T09:20:17.349Z,84.78
2019-05-23T09:22:43.444Z,84.76
2019-05-23T09:25:10.047Z,84.89
2019-05-23T09:27:36.457Z,85.10
2019-05-23T09:30:06.057Z,85.15
2019-05-23T09:32:32.062Z,84.70
2019-05-23T09:34:58.084Z,85.12
2019-05-23T09:37:24.399Z,85.04
2019-05-23T09:39:50.745Z,84.49
2019-05-23T09:42:16.939Z,83.86
2019-05-23T09:44:43.094Z,83.38
2019-05-23T09:47:09.072Z,83.90
2019-05-23T09:49:35.174Z,84.09
2019-05-23T09:52:01.759Z,83.35
2019-05-23T09:54:27.825Z,83.24
2019-05-23T09:56:54.055Z,82.40
2019-05-23T09:59:20.191Z,82.36
2019-05-23T10:01:47.386Z,82.53
2019-05-23T10:04:13.447Z,82.48
2019-05-23T10:06:39.882Z,82.47
2019-05-23T10:09:07.307Z,82.40
2019-05-23T10:11:33.821Z,81.63
2019-05-23T10:14:01.040Z,81.40
2019-05-23T10:16:27.340Z,81.03
2019-05-23T10:18:53.880Z,81.17
2019-05-23T10:21:19.982Z,81.11
2019-05-23T10:23:46.124Z,81.11
2019-05-23T10:26:13.237Z,81.30
2019-05-23T10:28:39.240Z,81.47
2019-05-23T10:31:07.143Z,81.63
2019-05-23T10:33:33.159Z,81.48
2019-05-23T10:36:01.165Z,81.51
2019-05-23T10:38:29.431Z,81.63
2019-05-23T10:40:55.347Z,81.93
2019-05-23T10:43:21.447Z,82.56
2019-05-23T10:45:47.651Z,83.10
2019-05-23T10:48:14.862Z,83.26
2019-05-23T10:50:44.849Z,83.63
2019-05-23T10:53:09.494Z,83.59
2019-05-23T10:55:35.609Z,83.25
2019-05-23T10:58:02.517Z,82.38
2019-05-23T11:00:29.644Z,82.95
2019-05-23T11:02:56.100Z,82.95
2019-05-23T11:05:22.267Z,82.71
2019-05-23T11:07:49.196Z,83.75
2019-05-23T11:10:16.586Z,83.49
2019-05-23T11:12:42.804Z,83.18
2019-05-23T11:15:09.314Z,82.95
2019-05-23T11:17:35.546Z,82.90
2019-05-23T11:20:05.341Z,82.51
2019-05-23T11:22:31.440Z,83.02
2019-05-23T11:24:57.470Z,82.54
2019-05-23T11:27:23.601Z,82.60
2019-05-23T11:29:49.763Z,82.41
2019-05-23T11:32:19.843Z,82.61
2019-05-23T11:34:44.550Z,82.85
2019-05-23T11:37:10.653Z,82.53
2019-05-23T11:39:41.971Z,82.33
2019-05-23T11:42:05.228Z,82.91
2019-05-23T11:44:31.253Z,82.75
2019-05-23T11:46:57.360Z,82.66
2019-05-23T11:49:23.884Z,82.45
2019-05-23T11:51:50.036Z,82.38
2019-05-23T11:54:16.165Z,82.18
2019-05-23T11:56:42.451Z,82.23
2019-05-23T11:59:08.642Z,82.38
2019-05-23T12:01:36.643Z,82.63
2019-05-23T12:04:07.726Z,82.72
2019-05-23T12:06:53.749Z,82.04
2019-05-23T12:09:05.389Z,81.63
2019-05-23T12:11:36.361Z,81.74
2019-05-23T12:14:00.196Z,81.86
2019-05-23T12:16:27.402Z,82.15
2019-05-23T12:18:53.413Z,82.00
2019-05-23T12:21:19.933Z,80.38
2019-05-23T12:23:46.066Z,80.68
2019-05-23T12:26:12.075Z,81.21
2019-05-23T12:28:38.381Z,81.26
2019-05-23T12:31:05.617Z,80.74
2019-05-23T12:33:31.823Z,80.63
2019-05-23T12:35:57.891Z,79.74
2019-05-23T12:38:23.895Z,79.37
2019-05-23T12:40:50.073Z,77.67
2019-05-23T12:43:16.175Z,78.62
2019-05-23T12:45:42.303Z,79.26
2019-05-23T12:48:19.312Z,77.60
2019-05-23T12:50:46.821Z,78.23
2019-05-23T12:53:14.939Z,77.76
2019-05-23T12:55:41.152Z,77.70
2019-05-23T12:58:07.164Z,77.98
2019-05-23T13:00:35.672Z,77.70
2019-05-23T13:03:02.140Z,77.63
2019-05-23T13:05:28.666Z,76.58
2019-05-23T13:07:55.226Z,77.64
2019-05-23T13:10:24.805Z,76.44
2019-05-23T13:12:49.639Z,77.57
2019-05-23T13:15:16.851Z,77.58
2019-05-23T13:17:42.893Z,77.42
2019-05-23T13:20:09.195Z,76.89
2019-05-23T13:22:35.383Z,76.93
2019-05-23T13:25:01.685Z,76.80
2019-05-23T13:27:28.497Z,76.77
2019-05-23T13:29:54.604Z,76.25
2019-05-23T13:32:20.709Z,77.21
2019-05-23T13:34:46.850Z,77.17
2019-05-23T13:37:16.973Z,76.76
2019-05-23T13:39:43.112Z,77.11
2019-05-23T13:42:09.235Z,77.42
2019-05-23T13:44:36.122Z,77.17
2019-05-23T13:47:02.682Z,77.06
2019-05-23T13:49:28.821Z,78.11
2019-05-23T13:51:55.469Z,77.70
2019-05-23T13:54:22.197Z,77.28
2019-05-23T13:56:48.354Z,77.37
2019-05-23T13:59:14.447Z,78.25
2019-05-23T14:01:41.140Z,77.77
2019-05-23T14:04:07.405Z,77.89
2019-05-23T14:06:33.515Z,77.31
2019-05-23T14:08:59.660Z,77.53
2019-05-23T14:11:25.863Z,77.84
2019-05-23T14:13:59.704Z,77.81
2019-05-23T14:17:02.599Z,78.05
2019-05-23T14:19:29.745Z,78.25
2019-05-23T14:21:56.263Z,78.36
2019-05-23T14:24:22.389Z,78.34
2019-05-23T14:26:56.424Z,78.26
2019-05-23T14:29:22.535Z,78.03
2019-05-23T14:31:53.833Z,78.12
2019-05-23T14:34:19.943Z,78.05
2019-05-23T14:36:47.955Z,78.02
2019-05-23T14:39:16.096Z,78.04
2019-05-23T14:41:53.090Z,77.31
2019-05-23T14:44:19.229Z,77.67
2019-05-23T14:46:47.142Z,78.07
2019-05-23T14:49:15.071Z,77.50
2019-05-23T14:51:43.168Z,77.97
2019-05-23T14:54:13.835Z,77.88
2019-05-23T14:56:40.847Z,77.52
2019-05-23T14:59:06.963Z,77.84
2019-05-23T15:01:34.081Z,78.03
2019-05-23T15:04:00.081Z,78.17
2019-05-23T15:06:26.221Z,78.09
2019-05-23T15:08:52.733Z,78.51
2019-05-23T15:11:18.903Z,78.68
2019-05-23T15:13:45.005Z,78.99
2019-05-23T15:16:11.261Z,78.73
2019-05-23T15:18:37.379Z,78.95
2019-05-23T15:21:03.611Z,79.06
2019-05-23T15:23:29.614Z,79.55
2019-05-23T15:25:55.762Z,79.25
2019-05-23T15:28:21.997Z,79.29
2019-05-23T15:30:47.953Z,79.17
2019-05-23T15:33:14.077Z,79.17
2019-05-23T15:35:40.130Z,79.53
2019-05-23T15:38:06.132Z,79.82
2019-05-23T15:40:32.182Z,79.49
2019-05-23T15:42:58.399Z,79.64
2019-05-23T15:45:24.635Z,79.80
2019-05-23T15:47:51.353Z,80.01
2019-05-23T15:50:19.552Z,79.99
2019-05-23T15:52:47.597Z,80.00
2019-05-23T15:58:14.018Z,79.63
2019-05-23T16:01:00.323Z,79.85
2019-05-23T16:03:45.222Z,80.05
2019-05-23T16:06:14.238Z,79.86
2019-05-23T16:08:40.380Z,80.21
2019-05-23T16:11:06.790Z,79.92
2019-05-23T16:13:33.600Z,80.07
2019-05-23T16:16:00.223Z,80.09
2019-05-23T16:18:26.230Z,80.07
2019-05-23T16:20:52.164Z,80.23
2019-05-23T16:23:18.453Z,80.53
2019-05-23T16:25:44.636Z,80.63
2019-05-23T16:28:11.129Z,80.64
2019-05-23T16:30:37.801Z,80.53
2019-05-23T16:33:03.906Z,80.69
2019-05-23T16:35:30.353Z,80.90
2019-05-23T16:38:03.284Z,81.24
2019-05-23T16:40:29.864Z,81.16
2019-05-23T16:42:56.013Z,81.11
2019-05-23T16:45:22.118Z,80.92
2019-05-23T16:47:48.403Z,80.79
2019-05-23T16:50:14.595Z,80.91
2019-05-23T16:52:40.613Z,80.76
2019-05-23T16:55:09.218Z,80.92
2019-05-23T16:57:37.127Z,81.01
2019-05-23T17:00:16.344Z,81.05
2019-05-23T17:02:44.182Z,80.94
2019-05-23T17:05:27.871Z,81.24
2019-05-23T17:08:11.953Z,80.93
2019-05-23T17:10:51.881Z,80.93
2019-05-23T17:13:29.287Z,80.97
2019-05-23T17:16:03.316Z,81.03
2019-05-23T17:18:49.263Z,81.07
2019-05-23T17:21:17.273Z,81.10
2019-05-23T17:23:47.728Z,81.10
2019-05-23T17:26:18.762Z,81.08
2019-05-23T17:28:46.682Z,80.96
2019-05-23T17:31:14.633Z,80.94
2019-05-23T17:33:40.851Z,80.92
2019-05-23T17:36:06.957Z,80.86
2019-05-23T17:38:33.065Z,81.08
2019-05-23T17:40:59.170Z,81.14
2019-05-23T17:43:25.347Z,81.11
2019-05-23T17:45:51.439Z,81.45
2019-05-23T17:48:18.042Z,81.47
2019-05-23T17:50:44.198Z,81.51
2019-05-23T17:53:10.189Z,81.72
2019-05-23T17:55:36.428Z,81.75
2019-05-23T17:58:02.764Z,81.76
2019-05-23T18:00:33.769Z,82.05
2019-05-23T18:03:00.080Z,81.84
2019-05-23T18:05:26.344Z,81.65
2019-05-23T18:07:52.921Z,81.69
2019-05-23T18:10:19.571Z,81.90
2019-05-23T18:12:45.981Z,82.05
2019-05-23T18:15:13.003Z,82.04
2019-05-23T18:17:39.561Z,82.16
2019-05-23T18:20:06.560Z,82.41
2019-05-23T18:22:32.863Z,82.25
2019-05-23T18:24:59.892Z,82.64
2019-05-23T18:27:26.154Z,83.39
2019-05-23T18:29:52.572Z,83.78
2019-05-23T18:32:20.588Z,83.99
2019-05-23T18:34:47.267Z,84.16
2019-05-23T18:37:13.478Z,84.13
2019-05-23T18:39:40.700Z,84.32
2019-05-23T18:42:07.153Z,84.40
2019-05-23T18:44:33.357Z,84.27
2019-05-23T18:47:01.365Z,84.37
2019-05-23T18:49:28.067Z,84.29
2019-05-23T18:51:54.576Z,84.34
2019-05-23T18:54:20.788Z,84.04
2019-05-23T18:56:46.897Z,84.68
2019-05-23T18:59:13.401Z,84.77
2019-05-23T19:01:39.609Z,85.10
2019-05-23T19:04:06.412Z,84.93
2019-05-23T19:06:32.969Z,84.63
2019-05-23T19:08:59.675Z,84.92
2019-05-23T19:11:25.786Z,84.80
2019-05-23T19:13:51.702Z,84.17
2019-05-23T19:16:17.721Z,83.97
2019-05-23T19:18:43.984Z,84.32
2019-05-23T19:21:12.434Z,84.65
2019-05-23T19:23:39.049Z,84.63
2019-05-23T19:26:05.249Z,84.68
2019-05-23T19:28:31.262Z,84.46
2019-05-23T19:30:57.581Z,84.44
2019-05-23T19:33:24.510Z,84.22
2019-05-23T19:35:51.107Z,83.99
2019-05-23T19:38:17.329Z,84.22
2019-05-23T19:40:44.361Z,84.15
2019-05-23T19:43:12.349Z,83.83
2019-05-23T19:45:38.474Z,83.89
2019-05-23T19:48:04.867Z,84.04
2019-05-23T19:50:31.108Z,83.80
2019-05-23T19:52:57.119Z,83.39
2019-05-23T19:55:23.255Z,83.35
2019-05-23T19:57:49.508Z,83.51
2019-05-23T20:00:17.629Z,83.71
2019-05-23T20:02:51.550Z,84.07
2019-05-23T20:05:35.830Z,84.39
2019-05-23T20:08:02.012Z,84.60
2019-05-23T20:10:29.187Z,84.33
2019-05-23T20:12:55.297Z,84.04
2019-05-23T20:15:22.389Z,84.03
2019-05-23T20:17:51.878Z,83.86
2019-05-23T20:20:16.710Z,84.04
2019-05-23T20:22:42.715Z,84.37
2019-05-23T20:25:09.146Z,84.57
2019-05-23T20:27:35.147Z,84.35
2019-05-23T20:30:01.261Z,84.56
2019-05-23T20:32:27.364Z,84.60
2019-05-23T20:34:53.562Z,84.59
2019-05-23T20:37:21.628Z,84.20
2019-05-23T20:39:47.658Z,83.76
2019-05-23T20:42:13.765Z,83.66
2019-05-23T20:44:40.008Z,83.65
2019-05-23T20:47:08.152Z,83.53
2019-05-23T20:49:34.202Z,83.68
2019-05-23T20:52:00.245Z,83.70
2019-05-23T20:54:26.353Z,83.76
2019-05-23T20:56:52.362Z,83.74
2019-05-23T20:59:18.467Z,84.08
2019-05-23T21:01:44.911Z,84.53
2019-05-23T21:04:11.113Z,84.66
2019-05-23T21:06:37.110Z,84.73
2019-05-23T21:09:05.620Z,85.28
2019-05-23T21:11:31.779Z,85.13
2019-05-23T21:13:57.787Z,84.79
2019-05-23T21:16:23.898Z,84.57
2019-05-23T21:18:50.442Z,84.38
2019-05-23T21:21:16.611Z,84.14
2019-05-23T21:23:42.821Z,84.36
2019-05-23T21:26:08.929Z,84.59
2019-05-23T21:28:35.294Z,84.81
2019-05-23T21:31:01.944Z,85.00
2019-05-23T21:33:28.360Z,85.23
2019-05-23T21:35:54.757Z,85.52
2019-05-23T21:38:21.061Z,85.50
2019-05-23T21:40:47.167Z,85.48
2019-05-23T21:43:13.267Z,85.83
2019-05-23T21:45:39.970Z,86.02
2019-05-23T21:48:06.143Z,86.05
2019-05-23T21:50:32.227Z,85.93
2019-05-23T21:52:58.266Z,85.76
2019-05-23T21:55:38.538Z,85.47
2019-05-23T21:58:05.768Z,85.24
2019-05-23T22:01:07.755Z,85.16
2019-05-23T22:03:46.142Z,85.03
2019-05-23T22:06:14.156Z,84.88
2019-05-23T22:08:40.472Z,85.06
2019-05-23T22:11:06.870Z,85.36
2019-05-23T22:13:33.003Z,85.47
2019-05-23T22:15:59.287Z,85.53
2019-05-23T22:18:25.899Z,85.49
2019-05-23T22:20:52.006Z,85.54
2019-05-23T22:23:18.518Z,85.51
2019-05-23T22:25:44.527Z,85.58
2019-05-23T22:28:10.567Z,85.59
2019-05-23T22:30:36.896Z,85.50
2019-05-23T22:33:03.977Z,85.30
2019-05-23T22:35:30.414Z,85.15
2019-05-23T22:37:56.699Z,85.23
2019-05-23T22:40:23.040Z,85.67
2019-05-23T22:42:49.085Z,86.18
2019-05-23T22:45:17.216Z,86.21
2019-05-23T22:47:43.250Z,86.35
2019-05-23T22:50:09.560Z,86.14
2019-05-23T22:52:35.674Z,86.04
2019-05-23T22:55:01.888Z,86.31
2019-05-23T22:57:27.930Z,86.37
2019-05-23T22:59:53.961Z,86.06
2019-05-23T23:02:20.069Z,86.23
2019-05-23T23:04:45.973Z,86.51
2019-05-23T23:07:12.818Z,86.54
2019-05-23T23:09:38.938Z,86.84
2019-05-23T23:12:05.134Z,86.87
2019-05-23T23:14:31.240Z,86.90
2019-05-23T23:16:57.592Z,86.87
2019-05-23T23:19:23.929Z,87.07
2019-05-23T23:21:49.845Z,86.70
2019-05-23T23:24:16.282Z,86.54
2019-05-23T23:26:42.424Z,86.29
2019-05-23T23:29:08.638Z,86.03
2019-05-23T23:31:34.871Z,85.93
2019-05-23T23:34:00.975Z,86.02
2019-05-23T23:36:27.123Z,86.33
2019-05-23T23:38:53.230Z,86.59
2019-05-23T23:41:19.338Z,86.69
2019-05-23T23:43:58.660Z,86.69
2019-05-23T23:46:32.459Z,86.55
2019-05-23T23:49:16.827Z,86.34
2019-05-23T23:52:01.296Z,86.55
2019-05-23T23:54:45.531Z,86.77
2019-05-23T23:57:29.900Z,87.17
2019-05-23T23:59:57.918Z,87.84
